createdAt,value
2017-12-10T00:00:29.474Z,805.98
2017-12-10T00:01:29.465Z,806.00
2017-12-10T00:02:29.470Z,805.90
2017-12-10T00:03:29.461Z,805.88
2017-12-10T00:04:29.458Z,805.91
2017-12-10T00:05:29.457Z,805.93
2017-12-10T00:06:29.458Z,805.95
2017-12-10T00:07:29.455Z,805.92
2017-12-10T00:08:29.448Z,805.92
2017-12-10T00:09:29.444Z,805.84
2017-12-10T00:10:29.442Z,805.88
2017-12-10T00:11:29.447Z,805.80
2017-12-10T00:12:29.441Z,805.78
2017-12-10T00:13:29.440Z,805.78
2017-12-10T00:14:29.436Z,805.80
2017-12-10T00:15:29.429Z,805.79
2017-12-10T00:16:29.431Z,805.78
2017-12-10T00:17:29.428Z,805.80
2017-12-10T00:18:29.427Z,805.75
2017-12-10T00:19:29.422Z,805.67
2017-12-10T00:20:29.414Z,805.68
2017-12-10T00:21:29.411Z,805.70
2017-12-10T00:22:29.415Z,805.70
2017-12-10T00:23:29.406Z,805.63
2017-12-10T00:24:29.404Z,805.65
2017-12-10T00:25:29.407Z,805.65
2017-12-10T00:26:29.398Z,805.62
2017-12-10T00:27:29.400Z,805.64
2017-12-10T00:28:29.392Z,805.62
2017-12-10T00:29:29.396Z,805.67
2017-12-10T00:30:29.393Z,805.60
2017-12-10T00:31:29.385Z,805.61
2017-12-10T00:32:29.381Z,805.60
2017-12-10T00:33:29.383Z,805.58
2017-12-10T00:34:29.376Z,805.58
2017-12-10T00:35:29.374Z,805.56
2017-12-10T00:36:29.370Z,805.59
2017-12-10T00:37:29.374Z,805.59
2017-12-10T00:38:29.366Z,805.57
2017-12-10T00:39:29.368Z,805.58
2017-12-10T00:40:29.371Z,805.55
2017-12-10T00:41:29.364Z,805.55
2017-12-10T00:42:29.355Z,805.51
2017-12-10T00:43:29.361Z,805.45
2017-12-10T00:44:29.354Z,805.41
2017-12-10T00:45:29.352Z,805.38
2017-12-10T00:46:29.344Z,805.36
2017-12-10T00:47:29.341Z,805.35
2017-12-10T00:48:29.347Z,805.33
2017-12-10T00:49:29.336Z,805.36
2017-12-10T00:50:29.339Z,805.34
2017-12-10T00:51:29.335Z,805.29
2017-12-10T00:52:29.327Z,805.27
2017-12-10T00:53:29.330Z,805.24
2017-12-10T00:54:29.325Z,805.22
2017-12-10T00:55:29.325Z,805.23
2017-12-10T00:56:29.317Z,805.21
2017-12-10T00:57:29.325Z,805.16
2017-12-10T00:58:29.322Z,805.15
2017-12-10T00:59:29.372Z,805.18
2017-12-10T01:00:29.307Z,805.12
2017-12-10T01:01:29.312Z,805.10
2017-12-10T01:02:29.304Z,805.11
2017-12-10T01:03:29.299Z,805.12
2017-12-10T01:04:29.302Z,805.14
2017-12-10T01:05:29.295Z,805.07
2017-12-10T01:06:29.301Z,805.07
2017-12-10T01:07:29.294Z,805.02
2017-12-10T01:08:29.292Z,805.03
2017-12-10T01:09:29.289Z,804.99
2017-12-10T01:10:29.287Z,805.03
2017-12-10T01:11:29.286Z,805.00
2017-12-10T01:12:29.282Z,805.00
2017-12-10T01:13:29.280Z,805.00
2017-12-10T01:14:29.272Z,805.05
2017-12-10T01:15:29.268Z,805.04
2017-12-10T01:16:29.267Z,805.07
2017-12-10T01:17:29.270Z,804.99
2017-12-10T01:18:29.280Z,804.99
2017-12-10T01:19:29.264Z,804.99
2017-12-10T01:20:29.261Z,804.95
2017-12-10T01:21:29.259Z,804.96
2017-12-10T01:22:29.251Z,804.92
2017-12-10T01:23:29.249Z,804.94
2017-12-10T01:24:29.247Z,804.95
2017-12-10T01:25:29.244Z,804.95
2017-12-10T01:26:29.242Z,804.93
2017-12-10T01:27:29.239Z,804.91
2017-12-10T01:28:29.237Z,804.88
2017-12-10T01:29:29.235Z,804.85
2017-12-10T01:30:29.233Z,804.86
2017-12-10T01:31:29.235Z,804.85
2017-12-10T01:32:29.234Z,804.80
2017-12-10T01:33:29.226Z,804.84
2017-12-10T01:34:29.232Z,804.79
2017-12-10T01:35:29.225Z,804.72
2017-12-10T01:36:29.226Z,804.74
2017-12-10T01:37:29.223Z,804.72
2017-12-10T01:38:29.220Z,804.65
2017-12-10T01:39:29.217Z,804.63
2017-12-10T01:40:29.215Z,804.68
2017-12-10T01:41:29.206Z,804.61
2017-12-10T01:42:29.212Z,804.59
2017-12-10T01:43:29.209Z,804.55
2017-12-10T01:44:29.201Z,804.57
2017-12-10T01:45:29.206Z,804.56
2017-12-10T01:46:29.204Z,804.53
2017-12-10T01:47:29.200Z,804.50
2017-12-10T01:48:29.201Z,804.45
2017-12-10T01:49:29.190Z,804.49
2017-12-10T01:50:29.189Z,804.47
2017-12-10T01:51:29.185Z,804.46
2017-12-10T01:52:29.184Z,804.47
2017-12-10T01:53:29.189Z,804.46
2017-12-10T01:54:29.186Z,804.46
2017-12-10T01:55:29.178Z,804.48
2017-12-10T01:56:29.182Z,804.47
2017-12-10T01:57:29.180Z,804.50
2017-12-10T01:58:29.176Z,804.46
2017-12-10T01:59:29.168Z,804.44
2017-12-10T02:00:29.175Z,804.50
2017-12-10T02:01:29.173Z,804.48
2017-12-10T02:02:29.168Z,804.51
2017-12-10T02:03:29.165Z,804.44
2017-12-10T02:04:29.158Z,804.44
2017-12-10T02:05:29.162Z,804.45
2017-12-10T02:06:29.164Z,804.41
2017-12-10T02:07:29.152Z,804.42
2017-12-10T02:08:29.153Z,804.40
2017-12-10T02:09:29.148Z,804.32
2017-12-10T02:10:29.147Z,804.33
2017-12-10T02:11:29.145Z,804.27
2017-12-10T02:12:29.143Z,804.27
2017-12-10T02:13:29.142Z,804.27
2017-12-10T02:14:29.139Z,804.23
2017-12-10T02:15:29.145Z,804.16
2017-12-10T02:16:29.142Z,804.18
2017-12-10T02:17:29.138Z,804.21
2017-12-10T02:18:29.132Z,804.21
2017-12-10T02:19:29.130Z,804.23
2017-12-10T02:20:29.134Z,804.21
2017-12-10T02:21:29.190Z,804.15
2017-12-10T02:22:29.126Z,804.15
2017-12-10T02:23:29.128Z,804.11
2017-12-10T02:24:29.124Z,804.12
2017-12-10T02:25:29.123Z,804.14
2017-12-10T02:26:29.119Z,804.12
2017-12-10T02:27:29.115Z,804.14
2017-12-10T02:28:29.118Z,804.10
2017-12-10T02:29:29.117Z,804.15
2017-12-10T02:30:29.114Z,804.08
2017-12-10T02:31:29.114Z,804.06
2017-12-10T02:32:29.107Z,804.02
2017-12-10T02:33:29.110Z,804.01
2017-12-10T02:34:29.109Z,804.00
2017-12-10T02:35:29.107Z,804.01
2017-12-10T02:36:29.100Z,803.96
2017-12-10T02:37:29.106Z,803.99
2017-12-10T02:38:29.106Z,803.93
2017-12-10T02:39:29.097Z,803.96
2017-12-10T02:40:29.098Z,803.93
2017-12-10T02:41:29.099Z,803.88
2017-12-10T02:42:29.091Z,803.89
2017-12-10T02:43:29.094Z,803.79
2017-12-10T02:44:29.087Z,803.79
2017-12-10T02:45:29.086Z,803.87
2017-12-10T02:46:29.085Z,803.83
2017-12-10T02:47:29.087Z,803.77
2017-12-10T02:48:29.086Z,803.66
2017-12-10T02:49:29.080Z,803.55
2017-12-10T02:50:29.078Z,803.55
2017-12-10T02:51:29.080Z,803.63
2017-12-10T02:52:29.075Z,803.58
2017-12-10T02:53:29.073Z,803.56
2017-12-10T02:54:29.072Z,803.57
2017-12-10T02:55:29.068Z,803.55
2017-12-10T02:56:29.069Z,803.55
2017-12-10T02:57:29.068Z,803.56
2017-12-10T02:58:29.063Z,803.57
2017-12-10T02:59:29.062Z,803.60
2017-12-10T03:00:29.061Z,803.57
2017-12-10T03:01:29.065Z,803.49
2017-12-10T03:02:29.059Z,803.49
2017-12-10T03:03:29.058Z,803.52
2017-12-10T03:04:29.061Z,803.50
2017-12-10T03:05:29.058Z,803.42
2017-12-10T03:06:29.052Z,803.35
2017-12-10T03:07:29.049Z,803.36
2017-12-10T03:08:29.046Z,803.35
2017-12-10T03:09:29.056Z,803.32
2017-12-10T03:10:29.046Z,803.30
2017-12-10T03:11:29.049Z,803.24
2017-12-10T03:12:29.048Z,803.15
2017-12-10T03:13:29.046Z,803.13
2017-12-10T03:14:29.045Z,803.23
2017-12-10T03:15:29.036Z,803.26
2017-12-10T03:16:29.035Z,803.26
2017-12-10T03:17:29.039Z,803.24
2017-12-10T03:18:29.037Z,803.17
2017-12-10T03:19:29.037Z,803.21
2017-12-10T03:20:29.035Z,803.14
2017-12-10T03:21:29.027Z,803.25
2017-12-10T03:22:29.025Z,803.39
2017-12-10T03:23:29.030Z,803.30
2017-12-10T03:24:29.027Z,803.21
2017-12-10T03:25:29.020Z,803.22
2017-12-10T03:26:29.026Z,803.28
2017-12-10T03:27:29.016Z,803.27
2017-12-10T03:28:29.015Z,803.21
2017-12-10T03:29:29.013Z,803.16
2017-12-10T03:30:29.013Z,803.07
2017-12-10T03:31:29.009Z,803.12
2017-12-10T03:32:29.007Z,803.14
2017-12-10T03:33:29.011Z,803.10
2017-12-10T03:34:29.009Z,803.08
2017-12-10T03:35:29.008Z,803.00
2017-12-10T03:36:29.005Z,802.99
2017-12-10T03:37:29.006Z,802.99
2017-12-10T03:38:28.997Z,802.94
2017-12-10T03:39:29.002Z,802.98
2017-12-10T03:40:29.001Z,803.03
2017-12-10T03:41:28.996Z,803.11
2017-12-10T03:42:28.998Z,803.08
2017-12-10T03:43:28.993Z,803.12
2017-12-10T03:44:28.994Z,803.10
2017-12-10T03:45:28.986Z,803.14
2017-12-10T03:46:28.983Z,803.13
2017-12-10T03:47:28.982Z,803.17
2017-12-10T03:48:28.980Z,803.13
2017-12-10T03:49:28.979Z,803.15
2017-12-10T03:50:28.978Z,803.13
2017-12-10T03:51:28.979Z,803.13
2017-12-10T03:52:28.973Z,803.14
2017-12-10T03:53:28.979Z,803.14
2017-12-10T03:54:28.980Z,803.09
2017-12-10T03:55:28.969Z,803.12
2017-12-10T03:56:28.974Z,803.15
2017-12-10T03:57:28.969Z,803.13
2017-12-10T03:58:28.972Z,803.12
2017-12-10T03:59:28.963Z,803.14
2017-12-10T04:00:28.970Z,803.10
2017-12-10T04:01:28.972Z,803.06
2017-12-10T04:02:28.967Z,802.99
2017-12-10T04:03:28.964Z,802.96
2017-12-10T04:04:28.962Z,802.94
2017-12-10T04:05:28.956Z,802.92
2017-12-10T04:06:28.955Z,802.84
2017-12-10T04:07:28.959Z,802.78
2017-12-10T04:08:28.957Z,802.74
2017-12-10T04:09:28.952Z,802.72
2017-12-10T04:10:28.956Z,802.70
2017-12-10T04:11:28.948Z,802.69
2017-12-10T04:12:28.953Z,802.61
2017-12-10T04:13:28.958Z,802.65
2017-12-10T04:14:28.951Z,802.64
2017-12-10T04:15:28.949Z,802.67
2017-12-10T04:16:28.948Z,802.63
2017-12-10T04:17:28.942Z,802.64
2017-12-10T04:18:28.947Z,802.66
2017-12-10T04:19:28.943Z,802.66
2017-12-10T04:20:28.937Z,802.71
2017-12-10T04:21:28.938Z,802.71
2017-12-10T04:22:28.939Z,802.71
2017-12-10T04:23:28.933Z,802.76
2017-12-10T04:24:28.933Z,802.76
2017-12-10T04:25:28.938Z,802.71
2017-12-10T04:26:28.933Z,802.67
2017-12-10T04:27:28.937Z,802.65
2017-12-10T04:28:28.934Z,802.64
2017-12-10T04:29:28.929Z,802.70
2017-12-10T04:30:28.929Z,802.67
2017-12-10T04:31:28.934Z,802.65
2017-12-10T04:32:28.928Z,802.62
2017-12-10T04:33:28.931Z,802.61
2017-12-10T04:34:28.926Z,802.60
2017-12-10T04:35:28.922Z,802.61
2017-12-10T04:36:28.921Z,802.65
2017-12-10T04:37:28.922Z,802.66
2017-12-10T04:38:28.932Z,802.68
2017-12-10T04:39:28.924Z,802.62
2017-12-10T04:40:28.923Z,802.61
2017-12-10T04:41:28.918Z,802.56
2017-12-10T04:42:28.923Z,802.53
2017-12-10T04:43:28.932Z,802.54
2017-12-10T04:44:28.915Z,802.50
2017-12-10T04:45:28.920Z,802.49
2017-12-10T04:46:28.914Z,802.52
2017-12-10T04:47:28.915Z,802.49
2017-12-10T04:48:28.920Z,802.50
2017-12-10T04:49:28.912Z,802.46
2017-12-10T04:50:28.918Z,802.41
2017-12-10T04:51:28.910Z,802.36
2017-12-10T04:52:28.913Z,802.34
2017-12-10T04:53:28.910Z,802.39
2017-12-10T04:54:28.915Z,802.41
2017-12-10T04:55:28.914Z,802.47
2017-12-10T04:56:28.912Z,802.45
2017-12-10T04:57:28.909Z,802.48
2017-12-10T04:58:28.907Z,802.50
2017-12-10T04:59:28.905Z,802.48
2017-12-10T05:00:28.910Z,802.50
2017-12-10T05:01:28.910Z,802.50
2017-12-10T05:02:28.905Z,802.47
2017-12-10T05:03:28.908Z,802.48
2017-12-10T05:04:28.903Z,802.48
2017-12-10T05:05:28.907Z,802.47
2017-12-10T05:06:28.914Z,802.46
2017-12-10T05:07:28.903Z,802.46
2017-12-10T05:08:28.906Z,802.41
2017-12-10T05:09:28.905Z,802.42
2017-12-10T05:10:28.901Z,802.37
2017-12-10T05:11:28.899Z,802.28
2017-12-10T05:12:28.905Z,802.33
2017-12-10T05:13:28.903Z,802.24
2017-12-10T05:14:28.905Z,802.25
2017-12-10T05:15:28.897Z,802.19
2017-12-10T05:16:28.900Z,802.17
2017-12-10T05:17:28.897Z,802.14
2017-12-10T05:18:28.896Z,802.13
2017-12-10T05:19:28.901Z,802.17
2017-12-10T05:20:28.897Z,802.09
2017-12-10T05:21:28.901Z,802.07
2017-12-10T05:22:28.896Z,802.07
2017-12-10T05:23:28.899Z,802.07
2017-12-10T05:24:28.901Z,802.04
2017-12-10T05:25:28.894Z,802.07
2017-12-10T05:26:28.901Z,802.08
2017-12-10T05:27:28.964Z,802.10
2017-12-10T05:28:28.896Z,802.07
2017-12-10T05:29:28.894Z,802.06
2017-12-10T05:30:28.895Z,802.07
2017-12-10T05:31:28.892Z,802.10
2017-12-10T05:32:28.897Z,802.10
2017-12-10T05:33:28.898Z,802.05
2017-12-10T05:34:28.896Z,802.07
2017-12-10T05:35:28.901Z,802.05
2017-12-10T05:36:28.902Z,802.08
2017-12-10T05:37:28.894Z,802.07
2017-12-10T05:38:28.898Z,802.06
2017-12-10T05:39:28.893Z,802.06
2017-12-10T05:40:28.898Z,802.07
2017-12-10T05:41:28.898Z,802.12
2017-12-10T05:42:28.893Z,802.15
2017-12-10T05:43:28.891Z,802.13
2017-12-10T05:44:28.905Z,802.05
2017-12-10T05:45:28.892Z,802.02
2017-12-10T05:46:28.900Z,802.04
2017-12-10T05:47:28.900Z,802.03
2017-12-10T05:48:28.893Z,802.04
2017-12-10T05:49:28.899Z,801.97
2017-12-10T05:50:28.894Z,801.93
2017-12-10T05:51:28.892Z,801.92
2017-12-10T05:52:28.899Z,801.93
2017-12-10T05:53:28.900Z,801.91
2017-12-10T05:54:28.899Z,801.90
2017-12-10T05:55:28.902Z,801.89
2017-12-10T05:56:28.894Z,801.87
2017-12-10T05:57:28.893Z,801.82
2017-12-10T05:58:28.904Z,801.77
2017-12-10T05:59:28.894Z,801.73
2017-12-10T06:00:28.901Z,801.68
2017-12-10T06:01:28.900Z,801.61
2017-12-10T06:02:28.902Z,801.60
2017-12-10T06:03:28.901Z,801.55
2017-12-10T06:04:28.899Z,801.52
2017-12-10T06:05:28.908Z,801.49
2017-12-10T06:06:28.898Z,801.51
2017-12-10T06:07:28.894Z,801.51
2017-12-10T06:08:28.903Z,801.48
2017-12-10T06:09:28.906Z,801.45
2017-12-10T06:10:28.898Z,801.42
2017-12-10T06:11:28.899Z,801.43
2017-12-10T06:12:28.898Z,801.43
2017-12-10T06:13:28.898Z,801.44
2017-12-10T06:14:28.895Z,801.42
2017-12-10T06:15:28.898Z,801.42
2017-12-10T06:16:28.892Z,801.33
2017-12-10T06:17:28.897Z,801.34
2017-12-10T06:18:28.900Z,801.35
2017-12-10T06:19:28.897Z,801.37
2017-12-10T06:20:28.889Z,801.34
2017-12-10T06:21:28.895Z,801.31
2017-12-10T06:22:28.895Z,801.28
2017-12-10T06:23:28.893Z,801.24
2017-12-10T06:24:28.892Z,801.17
2017-12-10T06:25:28.896Z,801.19
2017-12-10T06:26:28.893Z,801.14
2017-12-10T06:27:28.891Z,801.16
2017-12-10T06:28:28.896Z,801.17
2017-12-10T06:29:28.882Z,801.13
2017-12-10T06:30:28.883Z,801.08
2017-12-10T06:31:28.882Z,801.02
2017-12-10T06:32:28.888Z,801.01
2017-12-10T06:33:28.887Z,801.04
2017-12-10T06:34:28.886Z,801.05
2017-12-10T06:35:28.880Z,801.07
2017-12-10T06:36:28.879Z,801.01
2017-12-10T06:37:28.879Z,800.98
2017-12-10T06:38:28.882Z,800.93
2017-12-10T06:39:28.877Z,800.93
2017-12-10T06:40:28.876Z,800.90
2017-12-10T06:41:28.886Z,800.93
2017-12-10T06:42:28.883Z,800.88
2017-12-10T06:43:28.874Z,800.83
2017-12-10T06:44:28.875Z,800.92
2017-12-10T06:45:28.879Z,800.84
2017-12-10T06:46:28.879Z,800.85
2017-12-10T06:47:28.877Z,800.78
2017-12-10T06:48:28.879Z,800.78
2017-12-10T06:49:28.873Z,800.80
2017-12-10T06:50:28.876Z,800.70
2017-12-10T06:51:28.877Z,800.75
2017-12-10T06:52:28.869Z,800.72
2017-12-10T06:53:28.869Z,800.73
2017-12-10T06:54:28.876Z,800.65
2017-12-10T06:55:28.865Z,800.66
2017-12-10T06:56:28.890Z,800.72
2017-12-10T06:57:28.865Z,800.71
2017-12-10T06:58:28.872Z,800.66
2017-12-10T06:59:28.864Z,800.67
2017-12-10T07:00:28.871Z,800.68
2017-12-10T07:01:28.864Z,800.59
2017-12-10T07:02:28.863Z,800.59
2017-12-10T07:03:28.863Z,800.61
2017-12-10T07:04:28.861Z,800.58
2017-12-10T07:05:28.861Z,800.55
2017-12-10T07:06:28.868Z,800.53
2017-12-10T07:07:28.863Z,800.51
2017-12-10T07:08:28.870Z,800.49
2017-12-10T07:09:28.858Z,800.49
2017-12-10T07:10:28.857Z,800.49
2017-12-10T07:11:28.864Z,800.46
2017-12-10T07:12:28.868Z,800.49
2017-12-10T07:13:28.859Z,800.49
2017-12-10T07:14:28.862Z,800.48
2017-12-10T07:15:28.855Z,800.49
2017-12-10T07:16:28.858Z,800.46
2017-12-10T07:17:28.854Z,800.44
2017-12-10T07:18:28.853Z,800.44
2017-12-10T07:19:28.852Z,800.48
2017-12-10T07:20:28.855Z,800.45
2017-12-10T07:21:28.858Z,800.42
2017-12-10T07:22:28.857Z,800.38
2017-12-10T07:23:28.855Z,800.37
2017-12-10T07:24:28.849Z,800.33
2017-12-10T07:25:28.848Z,800.27
2017-12-10T07:26:28.848Z,800.27
2017-12-10T07:27:28.866Z,800.26
2017-12-10T07:28:28.849Z,800.32
2017-12-10T07:29:28.853Z,800.28
2017-12-10T07:30:28.852Z,800.26
2017-12-10T07:31:28.845Z,800.26
2017-12-10T07:32:28.851Z,800.25
2017-12-10T07:33:28.847Z,800.26
2017-12-10T07:34:28.846Z,800.24
2017-12-10T07:35:28.849Z,800.25
2017-12-10T07:36:28.850Z,800.22
2017-12-10T07:37:28.848Z,800.21
2017-12-10T07:38:28.840Z,800.22
2017-12-10T07:39:28.847Z,800.22
2017-12-10T07:40:28.841Z,800.28
2017-12-10T07:41:28.847Z,800.21
2017-12-10T07:42:28.840Z,800.10
2017-12-10T07:43:28.844Z,800.03
2017-12-10T07:44:28.844Z,800.13
2017-12-10T07:45:28.838Z,800.13
2017-12-10T07:46:28.839Z,800.18
2017-12-10T07:47:28.843Z,800.18
2017-12-10T07:48:28.836Z,800.16
2017-12-10T07:49:28.837Z,800.16
2017-12-10T07:50:28.836Z,800.15
2017-12-10T07:51:28.841Z,800.20
2017-12-10T07:52:28.841Z,800.22
2017-12-10T07:53:28.835Z,800.21
2017-12-10T07:54:28.838Z,800.26
2017-12-10T07:55:28.835Z,800.29
2017-12-10T07:56:28.835Z,800.33
2017-12-10T07:57:28.839Z,800.36
2017-12-10T07:58:28.833Z,800.37
2017-12-10T07:59:28.842Z,800.32
2017-12-10T08:00:28.840Z,800.35
2017-12-10T08:01:28.840Z,800.28
2017-12-10T08:02:28.832Z,800.26
2017-12-10T08:03:28.839Z,800.32
2017-12-10T08:04:28.832Z,800.35
2017-12-10T08:05:28.833Z,800.31
2017-12-10T08:06:28.832Z,800.31
2017-12-10T08:07:28.837Z,800.35
2017-12-10T08:08:28.833Z,800.41
2017-12-10T08:09:28.838Z,800.37
2017-12-10T08:10:28.833Z,800.34
2017-12-10T08:11:28.835Z,800.31
2017-12-10T08:12:28.833Z,800.28
2017-12-10T08:13:28.836Z,800.27
2017-12-10T08:14:28.837Z,800.21
2017-12-10T08:15:28.833Z,800.17
2017-12-10T08:16:28.836Z,800.01
2017-12-10T08:17:28.841Z,799.91
2017-12-10T08:18:28.837Z,799.87
2017-12-10T08:19:28.831Z,799.90
2017-12-10T08:20:28.836Z,799.82
2017-12-10T08:21:28.837Z,799.80
2017-12-10T08:22:28.833Z,799.75
2017-12-10T08:23:28.831Z,799.74
2017-12-10T08:24:28.832Z,799.73
2017-12-10T08:25:28.832Z,799.81
2017-12-10T08:26:28.832Z,799.85
2017-12-10T08:27:28.831Z,799.95
2017-12-10T08:28:28.840Z,800.01
2017-12-10T08:29:28.838Z,799.97
2017-12-10T08:30:28.844Z,800.00
2017-12-10T08:31:28.840Z,799.98
2017-12-10T08:32:28.843Z,800.02
2017-12-10T08:33:28.873Z,800.04
2017-12-10T08:34:28.902Z,800.03
2017-12-10T08:35:28.869Z,800.06
2017-12-10T08:36:28.878Z,799.98
2017-12-10T08:37:28.866Z,799.93
2017-12-10T08:38:28.871Z,799.91
2017-12-10T08:39:28.849Z,799.90
2017-12-10T08:40:28.875Z,799.96
2017-12-10T08:41:28.837Z,800.01
2017-12-10T08:42:28.834Z,800.11
2017-12-10T08:43:29.854Z,800.10
2017-12-10T08:44:28.846Z,800.06
2017-12-10T08:45:28.841Z,800.02
2017-12-10T08:46:28.853Z,799.89
2017-12-10T08:47:28.861Z,799.88
2017-12-10T08:48:28.835Z,799.81
2017-12-10T08:49:28.965Z,799.82
2017-12-10T08:50:28.846Z,799.79
2017-12-10T08:51:28.839Z,799.73
2017-12-10T08:52:28.835Z,799.76
2017-12-10T08:53:28.840Z,799.77
2017-12-10T08:54:28.842Z,799.75
2017-12-10T08:55:28.840Z,799.78
2017-12-10T08:56:28.842Z,799.77
2017-12-10T08:57:28.837Z,799.78
2017-12-10T08:58:28.836Z,799.82
2017-12-10T08:59:28.849Z,799.77
2017-12-10T09:00:28.842Z,799.74
2017-12-10T09:01:28.839Z,799.74
2017-12-10T09:02:28.841Z,799.75
2017-12-10T09:03:28.838Z,799.70
2017-12-10T09:04:28.846Z,799.64
2017-12-10T09:05:28.838Z,799.70
2017-12-10T09:06:28.841Z,799.63
2017-12-10T09:07:28.858Z,799.60
2017-12-10T09:08:28.853Z,799.57
2017-12-10T09:09:28.847Z,799.62
2017-12-10T09:10:28.860Z,799.51
2017-12-10T09:11:28.845Z,799.51
2017-12-10T09:12:28.852Z,799.50
2017-12-10T09:13:28.855Z,799.52
2017-12-10T09:14:28.846Z,799.44
2017-12-10T09:15:28.846Z,799.45
2017-12-10T09:16:28.850Z,799.41
2017-12-10T09:17:28.850Z,799.38
2017-12-10T09:18:28.864Z,799.39
2017-12-10T09:19:28.852Z,799.37
2017-12-10T09:20:28.847Z,799.38
2017-12-10T09:21:28.847Z,799.40
2017-12-10T09:22:28.850Z,799.37
2017-12-10T09:23:28.847Z,799.39
2017-12-10T09:24:28.874Z,799.39
2017-12-10T09:25:28.873Z,799.39
2017-12-10T09:26:29.110Z,799.37
2017-12-10T09:27:28.872Z,799.33
2017-12-10T09:28:28.883Z,799.29
2017-12-10T09:29:28.873Z,799.30
2017-12-10T09:30:28.877Z,799.27
2017-12-10T09:31:28.858Z,799.32
2017-12-10T09:32:28.846Z,799.30
2017-12-10T09:33:28.853Z,799.21
2017-12-10T09:34:28.895Z,799.21
2017-12-10T09:35:28.857Z,799.16
2017-12-10T09:36:28.877Z,799.14
2017-12-10T09:37:28.855Z,799.13
2017-12-10T09:38:28.858Z,799.09
2017-12-10T09:39:28.855Z,799.09
2017-12-10T09:40:28.855Z,799.09
2017-12-10T09:41:28.870Z,799.12
2017-12-10T09:42:28.875Z,799.10
2017-12-10T09:43:28.855Z,799.13
2017-12-10T09:44:28.853Z,799.12
2017-12-10T09:45:28.855Z,799.11
2017-12-10T09:46:28.856Z,799.07
2017-12-10T09:47:28.864Z,799.06
2017-12-10T09:48:28.860Z,799.00
2017-12-10T09:49:28.866Z,799.01
2017-12-10T09:50:28.872Z,799.04
2017-12-10T09:51:28.860Z,798.99
2017-12-10T09:52:28.862Z,798.97
2017-12-10T09:53:28.868Z,798.96
2017-12-10T09:54:28.864Z,798.98
2017-12-10T09:55:28.869Z,798.99
2017-12-10T09:56:28.874Z,798.99
2017-12-10T09:57:28.872Z,799.00
2017-12-10T09:58:28.884Z,799.03
2017-12-10T09:59:28.872Z,799.00
2017-12-10T10:00:28.895Z,798.98
2017-12-10T10:01:28.879Z,798.95
2017-12-10T10:02:28.875Z,798.94
2017-12-10T10:03:28.887Z,798.97
2017-12-10T10:04:28.877Z,798.94
2017-12-10T10:05:28.872Z,798.98
2017-12-10T10:06:28.879Z,798.97
2017-12-10T10:07:28.873Z,799.00
2017-12-10T10:08:28.879Z,799.04
2017-12-10T10:09:28.876Z,798.98
2017-12-10T10:10:28.885Z,798.90
2017-12-10T10:11:28.883Z,798.94
2017-12-10T10:12:28.883Z,799.01
2017-12-10T10:13:28.884Z,798.95
2017-12-10T10:14:28.884Z,798.93
2017-12-10T10:15:28.883Z,798.91
2017-12-10T10:16:28.893Z,798.90
2017-12-10T10:17:28.889Z,798.96
2017-12-10T10:18:28.908Z,799.02
2017-12-10T10:19:28.898Z,798.99
2017-12-10T10:20:28.921Z,798.97
2017-12-10T10:21:28.901Z,798.97
2017-12-10T10:22:28.900Z,799.05
2017-12-10T10:23:28.897Z,799.05
2017-12-10T10:24:28.911Z,799.04
2017-12-10T10:25:28.896Z,798.98
2017-12-10T10:26:28.925Z,799.01
2017-12-10T10:27:28.900Z,799.12
2017-12-10T10:28:28.908Z,799.11
2017-12-10T10:29:28.903Z,799.06
2017-12-10T10:30:28.933Z,798.98
2017-12-10T10:31:28.915Z,798.98
2017-12-10T10:32:28.911Z,798.86
2017-12-10T10:33:28.919Z,798.86
2017-12-10T10:34:28.912Z,798.84
2017-12-10T10:35:28.910Z,798.81
2017-12-10T10:36:28.912Z,798.78
2017-12-10T10:37:28.913Z,798.75
2017-12-10T10:38:28.912Z,798.74
2017-12-10T10:39:28.929Z,798.76
2017-12-10T10:40:28.927Z,798.79
2017-12-10T10:41:28.922Z,798.77
2017-12-10T10:42:28.929Z,798.71
2017-12-10T10:43:28.927Z,798.75
2017-12-10T10:44:28.922Z,798.72
2017-12-10T10:45:28.933Z,798.70
2017-12-10T10:46:28.956Z,798.69
2017-12-10T10:47:28.933Z,798.67
2017-12-10T10:48:29.181Z,798.60
2017-12-10T10:49:28.963Z,798.59
2017-12-10T10:50:28.942Z,798.60
2017-12-10T10:51:28.947Z,798.56
2017-12-10T10:52:28.967Z,798.53
2017-12-10T10:53:28.938Z,798.48
2017-12-10T10:54:28.940Z,798.51
2017-12-10T10:55:28.944Z,798.48
2017-12-10T10:56:28.944Z,798.44
2017-12-10T10:57:28.944Z,798.38
2017-12-10T10:58:28.955Z,798.37
2017-12-10T10:59:28.949Z,798.37
2017-12-10T11:00:28.944Z,798.37
2017-12-10T11:01:28.952Z,798.34
2017-12-10T11:02:28.950Z,798.21
2017-12-10T11:03:28.953Z,798.23
2017-12-10T11:04:28.974Z,798.31
2017-12-10T11:05:28.958Z,798.28
2017-12-10T11:06:28.955Z,798.19
2017-12-10T11:07:28.960Z,798.27
2017-12-10T11:08:28.957Z,798.25
2017-12-10T11:09:28.964Z,798.22
2017-12-10T11:10:28.968Z,798.22
2017-12-10T11:11:28.967Z,798.22
2017-12-10T11:12:29.006Z,798.15
2017-12-10T11:13:29.008Z,798.13
2017-12-10T11:14:29.049Z,798.17
2017-12-10T11:15:32.431Z,798.20
2017-12-10T11:16:30.689Z,798.19
2017-12-10T11:17:29.232Z,798.07
2017-12-10T11:18:29.013Z,797.99
2017-12-10T11:19:28.981Z,798.07
2017-12-10T11:20:28.984Z,798.12
2017-12-10T11:21:30.026Z,798.13
2017-12-10T11:22:28.981Z,798.07
2017-12-10T11:23:29.005Z,797.99
2017-12-10T11:24:28.987Z,797.95
2017-12-10T11:25:28.984Z,797.85
2017-12-10T11:26:28.993Z,797.84
2017-12-10T11:27:28.988Z,797.87
2017-12-10T11:28:28.997Z,797.93
2017-12-10T11:29:29.006Z,797.78
2017-12-10T11:30:29.021Z,797.65
2017-12-10T11:31:29.033Z,797.56
2017-12-10T11:32:29.009Z,797.63
2017-12-10T11:33:29.006Z,797.72
2017-12-10T11:34:29.002Z,797.70
2017-12-10T11:35:29.006Z,797.72
2017-12-10T11:36:29.028Z,797.69
2017-12-10T11:37:29.280Z,797.67
2017-12-10T11:38:29.005Z,797.65
2017-12-10T11:39:29.265Z,797.60
2017-12-10T11:40:29.022Z,797.63
2017-12-10T11:41:29.038Z,797.60
2017-12-10T11:42:29.047Z,797.61
2017-12-10T11:43:29.278Z,797.60
2017-12-10T11:44:29.056Z,797.54
2017-12-10T11:45:29.283Z,797.53
2017-12-10T11:46:29.060Z,797.52
2017-12-10T11:47:29.057Z,797.50
2017-12-10T11:48:29.318Z,797.42
2017-12-10T11:49:29.077Z,797.37
2017-12-10T11:50:29.030Z,797.34
2017-12-10T11:51:29.056Z,797.32
2017-12-10T11:52:29.048Z,797.27
2017-12-10T11:53:29.035Z,797.26
2017-12-10T11:54:29.035Z,797.22
2017-12-10T11:55:29.039Z,797.19
2017-12-10T11:56:29.043Z,797.20
2017-12-10T11:57:29.063Z,797.33
2017-12-10T11:58:29.062Z,797.37
2017-12-10T11:59:29.053Z,797.32
2017-12-10T12:00:29.307Z,797.24
2017-12-10T12:01:29.079Z,797.20
2017-12-10T12:02:29.082Z,797.28
2017-12-10T12:03:30.775Z,797.36
2017-12-10T12:04:29.079Z,797.33
2017-12-10T12:05:29.307Z,797.24
2017-12-10T12:06:29.755Z,797.16
2017-12-10T12:07:29.102Z,797.19
2017-12-10T12:08:29.086Z,797.16
2017-12-10T12:09:30.099Z,797.12
2017-12-10T12:10:34.613Z,797.14
2017-12-10T12:11:30.108Z,797.10
2017-12-10T12:12:29.213Z,797.06
2017-12-10T12:13:29.246Z,797.03
2017-12-10T12:14:30.338Z,797.00
2017-12-10T12:15:30.111Z,797.01
2017-12-10T12:16:29.345Z,797.01
2017-12-10T12:17:29.082Z,796.87
2017-12-10T12:18:29.079Z,796.81
2017-12-10T12:19:29.082Z,796.86
2017-12-10T12:20:29.081Z,796.94
2017-12-10T12:21:29.093Z,797.00
2017-12-10T12:22:29.080Z,796.96
2017-12-10T12:23:29.087Z,796.94
2017-12-10T12:24:29.089Z,796.88
2017-12-10T12:25:29.098Z,796.89
2017-12-10T12:26:29.095Z,796.93
2017-12-10T12:27:29.088Z,796.89
2017-12-10T12:28:29.090Z,796.83